createdAt,value
2022-08-07T00:04:06.132Z,47.13
2022-08-07T00:09:16.897Z,47.51
2022-08-07T00:14:25.574Z,47.73
2022-08-07T00:19:59.670Z,48.30
2022-08-07T00:24:53.986Z,49.41
2022-08-07T00:29:55.684Z,49.21
2022-08-07T00:34:58.264Z,49.22
2022-08-07T00:39:59.917Z,49.89
2022-08-07T00:45:02.220Z,49.29
2022-08-07T00:50:20.352Z,49.53
2022-08-07T00:56:03.371Z,50.05
2022-08-07T01:00:53.765Z,51.17
2022-08-07T01:05:56.678Z,51.44
2022-08-07T01:10:58.486Z,50.83
2022-08-07T01:16:30.519Z,51.94
2022-08-07T01:21:34.295Z,51.38
2022-08-07T01:26:39.169Z,52.08
2022-08-07T01:31:48.330Z,52.05
2022-08-07T01:36:57.605Z,52.76
2022-08-07T01:42:37.910Z,53.26
2022-08-07T01:48:20.199Z,53.62
2022-08-07T01:52:49.707Z,53.76
2022-08-07T01:58:06.516Z,54.70
2022-08-07T02:03:32.117Z,54.17
2022-08-07T02:08:49.155Z,53.89
2022-08-07T02:14:02.528Z,54.39
2022-08-07T02:20:05.718Z,55.96
2022-08-07T02:24:33.247Z,56.16
2022-08-07T02:29:48.627Z,56.61
2022-08-07T02:35:00.757Z,56.07
2022-08-07T02:40:30.009Z,55.90
2022-08-07T02:45:59.001Z,56.78
2022-08-07T02:50:55.564Z,57.30
2022-08-07T02:56:03.519Z,56.88
2022-08-07T03:01:18.762Z,57.86
2022-08-07T03:06:34.878Z,57.98
2022-08-07T03:11:51.756Z,59.31
2022-08-07T03:17:00.550Z,59.81
2022-08-07T03:22:08.211Z,59.78
2022-08-07T03:27:30.858Z,59.37
2022-08-07T03:32:57.045Z,59.27
2022-08-07T03:38:04.833Z,60.79
2022-08-07T03:43:10.118Z,60.83
2022-08-07T03:48:20.778Z,60.51
2022-08-07T03:53:50.238Z,60.42
2022-08-07T03:59:06.695Z,61.13
2022-08-07T04:04:08.983Z,60.90
2022-08-07T04:09:23.032Z,59.81
2022-08-07T04:14:37.496Z,60.68
2022-08-07T04:19:52.154Z,60.81
2022-08-07T04:24:56.212Z,61.21
2022-08-07T04:30:01.990Z,61.52
2022-08-07T04:35:21.864Z,60.21
2022-08-07T04:40:26.641Z,60.44
2022-08-07T04:46:02.159Z,60.08
2022-08-07T04:51:16.333Z,59.99
2022-08-07T04:58:11.901Z,59.97
2022-08-07T05:02:02.507Z,60.38
2022-08-07T05:07:30.585Z,60.38
2022-08-07T05:12:51.554Z,59.92
2022-08-07T05:18:00.927Z,58.30
2022-08-07T05:23:16.052Z,58.10
2022-08-07T05:28:23.318Z,57.84
2022-08-07T05:33:31.448Z,55.41
2022-08-07T05:39:00.225Z,55.73
2022-08-07T05:44:12.298Z,55.78
2022-08-07T05:49:19.519Z,55.33
2022-08-07T05:54:30.623Z,54.24
2022-08-07T05:59:57.251Z,53.18
2022-08-07T06:05:10.922Z,52.10
2022-08-07T06:10:18.928Z,50.44
2022-08-07T06:15:39.101Z,48.33
2022-08-07T06:20:50.363Z,46.51
2022-08-07T06:26:14.271Z,46.59
2022-08-07T06:31:17.076Z,44.75
2022-08-07T06:36:35.007Z,45.21
2022-08-07T06:42:00.804Z,44.44
2022-08-07T06:47:27.055Z,43.16
2022-08-07T06:52:36.493Z,42.20
2022-08-07T06:57:51.999Z,42.57
2022-08-07T07:03:00.913Z,42.14
2022-08-07T07:08:06.835Z,41.64
2022-08-07T07:13:55.606Z,40.66
2022-08-07T07:19:11.210Z,41.01
2022-08-07T07:24:23.966Z,40.24
2022-08-07T07:29:56.635Z,39.62
2022-08-07T07:34:59.539Z,39.00
2022-08-07T07:40:14.951Z,38.35
2022-08-07T07:45:18.383Z,36.89
2022-08-07T07:50:35.167Z,36.28
2022-08-07T07:55:45.346Z,36.14
2022-08-07T08:00:58.662Z,35.93
2022-08-07T08:06:02.075Z,35.21
2022-08-07T08:11:08.378Z,35.29
2022-08-07T08:16:19.600Z,34.78
2022-08-07T08:21:55.322Z,34.86
2022-08-07T08:27:09.356Z,33.37
2022-08-07T08:32:18.287Z,32.86
2022-08-07T08:38:00.934Z,31.99
2022-08-07T08:42:51.564Z,31.45
2022-08-07T08:48:10.750Z,30.47
2022-08-07T08:53:25.753Z,29.13
2022-08-07T08:58:33.621Z,30.93
2022-08-07T09:03:52.989Z,30.63
2022-08-07T09:09:21.147Z,30.06
2022-08-07T09:14:39.101Z,29.98
2022-08-07T09:19:59.067Z,29.86
2022-08-07T09:25:21.755Z,29.15
2022-08-07T09:30:33.291Z,29.31
2022-08-07T09:36:00.893Z,28.28
2022-08-07T09:41:36.232Z,28.92
2022-08-07T09:47:51.888Z,27.92
2022-08-07T09:52:51.562Z,28.62
2022-08-07T09:57:56.242Z,29.08
2022-08-07T10:04:05.602Z,29.17
2022-08-07T10:09:05.570Z,29.65
2022-08-07T10:14:30.325Z,28.66
2022-08-07T10:19:43.582Z,27.03
2022-08-07T10:25:11.302Z,27.35
2022-08-07T10:30:42.199Z,26.49
2022-08-07T10:36:11.269Z,26.61
2022-08-07T10:41:52.310Z,27.38
2022-08-07T10:47:14.181Z,25.62
2022-08-07T10:52:31.890Z,25.87
2022-08-07T10:58:33.099Z,25.50
2022-08-07T11:03:54.958Z,24.70
2022-08-07T11:09:11.659Z,24.96
2022-08-07T11:14:44.285Z,25.40
2022-08-07T11:20:14.634Z,25.81
2022-08-07T11:25:30.615Z,24.75
2022-08-07T11:30:52.311Z,25.37
2022-08-07T11:36:30.796Z,24.60
2022-08-07T11:42:02.050Z,24.44
2022-08-07T11:47:13.894Z,23.66
2022-08-07T11:53:06.656Z,23.70
2022-08-07T11:58:33.705Z,23.19
2022-08-07T12:03:41.834Z,22.97
2022-08-07T12:09:01.669Z,23.33
2022-08-07T12:14:19.086Z,23.95
2022-08-07T12:19:56.514Z,23.71
2022-08-07T12:26:21.523Z,24.24
2022-08-07T12:30:53.184Z,23.45
2022-08-07T12:35:57.747Z,23.98
2022-08-07T12:41:02.687Z,23.75
2022-08-07T12:46:26.617Z,24.37
2022-08-07T12:51:52.710Z,24.27
2022-08-07T12:57:10.342Z,23.93
2022-08-07T13:02:50.297Z,24.71
2022-08-07T13:08:13.392Z,24.68
2022-08-07T13:13:59.594Z,24.63
2022-08-07T13:19:18.121Z,24.38
2022-08-07T13:24:29.417Z,24.47
2022-08-07T13:29:56.189Z,25.11
2022-08-07T13:35:59.637Z,25.04
2022-08-07T13:41:09.264Z,24.29
2022-08-07T13:46:25.478Z,24.75
2022-08-07T13:52:22.318Z,24.89
2022-08-07T13:56:59.744Z,25.43
2022-08-07T14:02:10.424Z,25.20
2022-08-07T14:07:13.464Z,26.08
2022-08-07T14:12:41.492Z,26.66
2022-08-07T14:18:12.689Z,26.25
2022-08-07T14:23:58.937Z,26.23
2022-08-07T14:28:56.002Z,26.44
2022-08-07T14:34:01.906Z,26.49
2022-08-07T14:39:12.480Z,26.55
2022-08-07T14:44:33.723Z,25.97
2022-08-07T14:49:57.450Z,25.82
2022-08-07T14:55:01.539Z,26.11
2022-08-07T15:00:06.981Z,26.43
2022-08-07T15:05:20.617Z,26.30
2022-08-07T15:10:29.814Z,26.21
2022-08-07T15:15:40.619Z,26.32
2022-08-07T15:20:54.981Z,25.78
2022-08-07T15:25:59.800Z,26.68
2022-08-07T15:31:05.849Z,26.64
2022-08-07T15:36:09.405Z,26.01
2022-08-07T15:46:51.762Z,25.85
2022-08-07T15:57:00.870Z,24.13
2022-08-07T16:02:05.317Z,22.74
2022-08-07T16:08:32.499Z,23.23
2022-08-07T16:12:40.554Z,24.33
2022-08-07T16:18:50.004Z,24.80
2022-08-07T16:24:00.599Z,25.41
2022-08-07T16:30:10.125Z,25.92
2022-08-07T16:35:51.663Z,26.41
2022-08-07T16:41:04.541Z,26.22
2022-08-07T16:47:06.815Z,26.52
2022-08-07T16:52:51.731Z,26.94
2022-08-07T16:58:02.958Z,27.09
2022-08-07T17:03:57.695Z,27.15
2022-08-07T17:09:14.282Z,27.19
2022-08-07T17:14:33.009Z,27.32
2022-08-07T17:20:02.681Z,27.63
2022-08-07T17:25:18.458Z,28.12
2022-08-07T17:30:27.154Z,28.46
2022-08-07T17:35:57.444Z,28.00
2022-08-07T17:42:04.786Z,28.72
2022-08-07T17:46:53.239Z,28.88
2022-08-07T17:52:10.615Z,29.26
2022-08-07T17:57:59.175Z,29.23
2022-08-07T18:04:03.964Z,29.97
2022-08-07T18:09:05.834Z,29.87
2022-08-07T18:14:16.483Z,29.97
2022-08-07T18:21:09.769Z,29.74
2022-08-07T18:24:59.004Z,30.07
2022-08-07T18:30:31.391Z,30.65
2022-08-07T18:35:50.281Z,30.88
2022-08-07T18:41:45.048Z,31.29
2022-08-07T18:47:06.380Z,31.63
2022-08-07T18:52:53.064Z,31.86
2022-08-07T18:58:14.349Z,32.22
2022-08-07T19:03:37.902Z,32.44
2022-08-07T19:08:46.391Z,32.58
2022-08-07T19:14:11.661Z,32.72
2022-08-07T19:19:37.613Z,33.43
2022-08-07T19:24:44.673Z,33.66
2022-08-07T19:31:05.119Z,34.06
2022-08-07T19:35:19.314Z,35.48
2022-08-07T19:40:34.688Z,35.14
2022-08-07T19:46:09.286Z,35.80
2022-08-07T19:51:05.196Z,36.19
2022-08-07T19:57:51.611Z,36.99
2022-08-07T20:01:57.986Z,37.10
2022-08-07T20:07:00.833Z,37.68
2022-08-07T20:12:31.371Z,38.44
2022-08-07T20:17:26.735Z,38.33
2022-08-07T20:22:34.491Z,38.96
2022-08-07T20:27:46.440Z,39.07
2022-08-07T20:32:54.724Z,39.94
2022-08-07T20:37:59.439Z,40.18
2022-08-07T20:43:14.692Z,41.03
2022-08-07T20:48:30.304Z,41.10
2022-08-07T20:54:03.370Z,40.78
2022-08-07T20:59:01.374Z,41.76
2022-08-07T21:04:22.091Z,42.25
2022-08-07T21:09:52.398Z,42.29
2022-08-07T21:15:05.933Z,42.46
2022-08-07T21:20:26.719Z,42.98
2022-08-07T21:25:42.644Z,43.46
2022-08-07T21:31:02.937Z,43.26
2022-08-07T21:36:11.789Z,43.92
2022-08-07T21:41:38.224Z,44.08
2022-08-07T21:47:12.460Z,43.92
2022-08-07T21:52:33.572Z,44.22
2022-08-07T21:58:12.635Z,44.64
2022-08-07T22:03:46.242Z,44.74
2022-08-07T22:08:58.787Z,45.28
2022-08-07T22:14:05.219Z,45.67
2022-08-07T22:19:29.994Z,46.38
2022-08-07T22:24:41.199Z,46.42
2022-08-07T22:29:55.556Z,47.18
2022-08-07T22:35:02.091Z,46.83
2022-08-07T22:40:22.656Z,46.93
2022-08-07T22:46:21.764Z,47.31
2022-08-07T22:51:43.205Z,47.91
2022-08-07T22:57:05.249Z,48.21
2022-08-07T23:02:13.668Z,48.83
2022-08-07T23:07:42.128Z,48.85
2022-08-07T23:13:14.491Z,48.99
2022-08-07T23:19:13.755Z,48.47
2022-08-07T23:24:50.714Z,48.56
2022-08-07T23:30:38.933Z,48.52
2022-08-07T23:35:55.586Z,49.57
2022-08-07T23:42:01.798Z,49.41
2022-08-07T23:47:22.752Z,50.02
2022-08-07T23:53:01.106Z,49.95
2022-08-07T23:58:18.495Z,49.77
